»·PEaware :: UAL2006 KSFO-KPSP

UAL2006 :: KSFO-KPSP

FLIGHT INFORMATION

Flight Status: Arrived
Operator:
United Airlines
More flights by this operator :: More flights under this callsign
Pilot: Vlad D. (11271)
Aircraft: BOEING 737-300
(B733)
More flights by this aircraft type
Origin: KSFO San Francisco Intl
United States
Destination: KPSP Palm Springs Intl
United States
More flights between these airports :: More routes between these airports
Route: +SSTIK3 LOSHN PMD V137 PSP
File this flight plan on PilotEdge
Remarks: Flown with Virtual United
Altitude:
(Current/Filed)
35,000ft
Speed:
(Current/Filed)
436kts
Departed: 12-Jun-16 09:37 AM
Arrived: 12-Jun-16 10:51 AM
Distance/Time
Traveled:
365nm/1:14
Distance/Time
To Go:
Arrived

Flight Plot

Page will automatically refresh every two minutes.


Map Options




Map Legend


Flown Route
Filed Route
Departure Airport
Arrival Airport
Navaid (VOR, NDB)
Fix

Horizontal Profiles

Position Reports

Time Latitude Longitude Heading Altitude Ground
Speed
12-Jun-16 09:00 37.619740 -122.384012 213 30ft 0kts
12-Jun-16 09:01 37.619740 -122.384012 213 30ft 0kts
12-Jun-16 09:02 37.619740 -122.384012 213 30ft 0kts
12-Jun-16 09:03 37.619740 -122.384012 213 30ft 0kts
12-Jun-16 09:04 37.619740 -122.384012 213 30ft 0kts
12-Jun-16 09:05 37.619740 -122.384012 213 30ft 0kts
12-Jun-16 09:06 37.619740 -122.384012 213 30ft 0kts
12-Jun-16 09:07 37.619740 -122.384012 213 30ft 0kts
12-Jun-16 09:08 37.619740 -122.384012 213 30ft 0kts
12-Jun-16 09:09 37.619740 -122.384012 213 30ft 0kts
12-Jun-16 09:10 37.619740 -122.384012 213 30ft 0kts
12-Jun-16 09:11 37.619740 -122.384012 213 30ft 0kts
12-Jun-16 09:12 37.619740 -122.384012 213 30ft 0kts
12-Jun-16 09:13 37.619740 -122.384012 213 30ft 0kts
12-Jun-16 09:14 37.619740 -122.384012 213 30ft 0kts
12-Jun-16 09:15 37.619740 -122.384012 213 30ft 0kts
12-Jun-16 09:16 37.619740 -122.384012 213 30ft 0kts
12-Jun-16 09:17 37.619740 -122.384012 213 30ft 0kts
12-Jun-16 09:18 37.619740 -122.384012 213 30ft 0kts
12-Jun-16 09:19 37.619740 -122.384012 213 30ft 0kts
12-Jun-16 09:20 37.619740 -122.384012 213 30ft 0kts
12-Jun-16 09:21 37.619778 -122.383981 214 30ft 0kts
12-Jun-16 09:22 37.620121 -122.383784 111 30ft 0kts
12-Jun-16 09:23 37.620122 -122.383789 105 30ft 0kts
12-Jun-16 09:24 37.620122 -122.383789 105 30ft 0kts
12-Jun-16 09:25 37.620122 -122.383789 105 30ft 0kts
12-Jun-16 09:26 37.619876 -122.382512 117 30ft 8kts
12-Jun-16 09:27 37.618176 -122.379657 156 29ft 11kts
12-Jun-16 09:28 37.615714 -122.380255 207 30ft 7kts
12-Jun-16 09:29 37.614123 -122.381286 208 29ft 5kts
12-Jun-16 09:30 37.612700 -122.382233 208 30ft 7kts
12-Jun-16 09:31 37.610789 -122.383501 207 30ft 8kts
12-Jun-16 09:32 37.608632 -122.384263 117 30ft 5kts
12-Jun-16 09:33 37.608357 -122.383586 117 30ft 4kts
12-Jun-16 09:34 37.614221 -122.378712 28 28ft 111kts
12-Jun-16 09:35 37.655430 -122.357779 5 2094ft 174kts
12-Jun-16 09:36 37.699886 -122.372435 300 3967ft 179kts
12-Jun-16 09:37 37.674333 -122.421639 189 5231ft 245kts
12-Jun-16 09:38 37.605006 -122.440300 191 8064ft 265kts
12-Jun-16 09:39 37.528984 -122.461748 192 9969ft 298kts
12-Jun-16 09:40 37.459285 -122.426338 128 10602ft 311kts
12-Jun-16 09:41 37.401130 -122.337175 127 13031ft 342kts
12-Jun-16 09:42 37.340101 -122.242689 126 15702ft 358kts
12-Jun-16 09:43 37.275911 -122.143488 126 18134ft 375kts
12-Jun-16 09:44 37.208769 -122.040039 125 20378ft 390kts
12-Jun-16 09:45 37.140393 -121.935015 125 22395ft 403kts
12-Jun-16 09:46 37.067895 -121.824003 125 23905ft 426kts
12-Jun-16 09:47 36.992137 -121.708433 125 25612ft 439kts
12-Jun-16 09:48 36.914065 -121.589747 124 27417ft 446kts
12-Jun-16 09:49 36.834533 -121.469286 124 28791ft 457kts
12-Jun-16 09:50 36.773370 -121.376947 125 30279ft 451kts
12-Jun-16 09:51 36.697637 -121.262587 127 32034ft 443kts
12-Jun-16 09:52 36.620172 -121.146099 128 33661ft 434kts
12-Jun-16 09:53 36.543365 -121.031065 128 34762ft 433kts
12-Jun-16 09:54 36.466241 -120.915339 127 35066ft 439kts
12-Jun-16 09:55 36.387723 -120.796745 128 35039ft 449kts
12-Jun-16 09:56 36.308084 -120.677918 128 35048ft 448kts
12-Jun-16 09:57 36.228348 -120.559353 128 35035ft 449kts
12-Jun-16 09:58 36.148415 -120.440914 128 35048ft 448kts
12-Jun-16 09:59 36.068935 -120.323315 128 35019ft 450kts
12-Jun-16 10:00 35.990344 -120.206989 128 35005ft 413kts
12-Jun-16 10:01 35.920800 -120.104965 128 35005ft 385kts
12-Jun-16 10:02 35.850592 -120.002268 128 35006ft 405kts
12-Jun-16 10:03 35.780189 -119.889587 126 35015ft 425kts
12-Jun-16 10:04 35.707549 -119.771199 128 35017ft 446kts
12-Jun-16 10:05 35.632605 -119.649489 128 34998ft 444kts
12-Jun-16 10:06 35.557811 -119.528469 128 35000ft 446kts
12-Jun-16 10:07 35.482992 -119.407817 128 35000ft 446kts
12-Jun-16 10:08 35.408398 -119.287224 129 34999ft 446kts
12-Jun-16 10:09 35.333471 -119.166980 131 35000ft 445kts
12-Jun-16 10:10 35.258868 -119.047899 132 34999ft 435kts
12-Jun-16 10:11 35.185839 -118.931776 133 35003ft 433kts
12-Jun-16 10:12 35.112088 -118.814858 133 35034ft 435kts
12-Jun-16 10:13 35.037850 -118.697565 132 35087ft 438kts
12-Jun-16 10:14 34.964315 -118.581751 132 32864ft 429kts
12-Jun-16 10:15 34.891569 -118.467606 132 29626ft 434kts
12-Jun-16 10:16 34.818679 -118.353435 131 26934ft 421kts
12-Jun-16 10:17 34.749139 -118.244143 132 24527ft 405kts
12-Jun-16 10:18 34.681529 -118.139028 131 23963ft 403kts
12-Jun-16 10:19 34.615479 -118.029109 123 23970ft 405kts
12-Jun-16 10:20 34.570043 -117.929605 122 23970ft 406kts
12-Jun-16 10:21 34.506305 -117.790351 123 23985ft 404kts
12-Jun-16 10:22 34.460904 -117.691875 123 22776ft 404kts
12-Jun-16 10:23 34.408029 -117.577168 123 20633ft 385kts
12-Jun-16 10:24 34.357309 -117.467477 123 18685ft 365kts
12-Jun-16 10:25 34.310655 -117.366907 123 17975ft 329kts
12-Jun-16 10:26 34.266173 -117.270541 124 18405ft 324kts
12-Jun-16 10:27 34.224060 -117.179955 125 18702ft 285kts
12-Jun-16 10:28 34.185273 -117.097446 125 19105ft 289kts
12-Jun-16 10:29 34.145527 -117.012690 125 19784ft 294kts
12-Jun-16 10:30 34.106084 -116.928667 125 18283ft 283kts
12-Jun-16 10:31 34.068261 -116.848257 125 17146ft 274kts
12-Jun-16 10:32 34.027938 -116.762892 124 16816ft 307kts
12-Jun-16 10:33 33.985729 -116.673757 123 15277ft 311kts
12-Jun-16 10:34 33.943357 -116.583388 122 13296ft 312kts
12-Jun-16 10:35 33.901837 -116.494527 122 11304ft 302kts
12-Jun-16 10:36 33.861504 -116.409115 121 9343ft 298kts
12-Jun-16 10:37 33.823246 -116.322402 118 7812ft 292kts
12-Jun-16 10:38 33.785043 -116.238582 135 6302ft 280kts
12-Jun-16 10:39 33.724159 -116.196580 184 4785ft 253kts
12-Jun-16 10:40 33.664971 -116.226244 232 3688ft 216kts
12-Jun-16 10:41 33.645501 -116.281632 275 3500ft 161kts
12-Jun-16 10:42 33.652202 -116.331844 298 3484ft 151kts
12-Jun-16 10:43 33.680629 -116.368755 315 2952ft 144kts
12-Jun-16 10:44 33.710264 -116.401699 319 2411ft 149kts
12-Jun-16 10:45 33.743221 -116.432103 328 1763ft 153kts
12-Jun-16 10:46 33.777143 -116.460804 324 1332ft 147kts
12-Jun-16 10:47 33.809648 -116.489696 323 711ft 147kts
12-Jun-16 10:48 33.833322 -116.510970 294 442ft 5kts
12-Jun-16 10:49 33.833071 -116.511750 230 443ft 0kts
12-Jun-16 10:50 33.831901 -116.511775 148 441ft 15kts
12-Jun-16 10:51 33.827137 -116.507446 144 423ft 26kts
12-Jun-16 10:52 33.824076 -116.505880 188 415ft 6kts
12-Jun-16 10:53 33.823749 -116.506162 229 415ft 0kts

Navigation Log

Ident Type
Flight plan parsing failed, navigation log unavailable